Terminal Aerodrome Forecast
Issued by NWS Charleston, WV

Current Version | Previous Version | Text Only | Print | Product List | Glossary Off
Versions: 1 2 3 4 5 6 7 8 9 10 11 12 13 14 15 16 17 18 19 20 21 22 23 24 25 26 27 28 29 30 31

121
FTUS41 KRLX 290751 AAA
TAFEKN
TAF AMD
KEKN 290751Z 2908/3006 00000KT 6SM BR BKN015 OVC035
      TEMPO 2909/2913 4SM BR BKN005
     FM291300 00000KT 4SM BR BKN003
     FM291500 VRB03KT 6SM BR BKN015
     FM291700 30004KT P6SM BKN050
     FM300000 00000KT P6SM BKN040
     FM300100 00000KT 4SM BR BKN040
     FM300500 00000KT 1SM BR BKN001=

USA.gov is the U.S. government's official web portal to all federal, state and local government web resources and services.